createdAt,value
2019-03-02T19:06:35.195Z,9.99
2019-03-02T19:09:09.882Z,10.54
2019-03-02T19:11:43.400Z,10.65
2019-03-02T19:14:20.929Z,10.75
2019-03-02T19:16:52.365Z,10.82
2019-03-02T19:19:25.893Z,10.84
2019-03-02T19:21:59.420Z,10.92
2019-03-02T19:24:32.912Z,10.96
2019-03-02T19:27:06.492Z,10.97
2019-03-02T19:29:39.851Z,10.99
2019-03-02T19:32:13.312Z,10.94
2019-03-02T19:34:46.761Z,10.96
2019-03-02T19:37:20.281Z,10.97
2019-03-02T19:39:53.647Z,10.97
2019-03-02T19:42:27.458Z,11.01
2019-03-02T19:45:00.907Z,11.00
2019-03-02T19:47:34.478Z,10.98
2019-03-02T19:50:13.120Z,11.05
2019-03-02T19:52:46.886Z,11.02
2019-03-02T19:55:20.564Z,11.08
2019-03-02T19:57:54.007Z,11.11
2019-03-02T20:00:30.420Z,11.14
2019-03-02T20:03:03.972Z,11.16
2019-03-02T20:05:37.470Z,11.16
2019-03-02T20:08:10.945Z,11.11
2019-03-02T20:10:44.792Z,11.11
2019-03-02T20:13:21.609Z,11.05
2019-03-02T20:15:55.148Z,11.07
2019-03-02T20:18:28.572Z,11.05
2019-03-02T20:21:01.963Z,11.10
2019-03-02T20:23:37.428Z,11.09
2019-03-02T20:26:10.552Z,11.09
2019-03-02T20:28:43.887Z,11.04
2019-03-02T20:31:17.288Z,11.07
2019-03-02T20:33:50.723Z,11.11
2019-03-02T20:36:24.082Z,11.13
2019-03-02T20:38:57.476Z,11.14
2019-03-02T20:41:31.121Z,11.17
2019-03-02T20:44:04.673Z,11.19
2019-03-02T20:46:38.074Z,11.20
2019-03-02T20:49:11.505Z,11.19
2019-03-02T20:51:44.974Z,11.14
2019-03-02T20:54:18.398Z,11.18
2019-03-02T20:56:51.839Z,11.18
2019-03-02T20:59:25.258Z,11.18
2019-03-02T21:01:58.653Z,11.21
2019-03-02T21:04:32.053Z,11.27
2019-03-02T21:07:05.518Z,11.25
2019-03-02T21:09:40.685Z,11.26
2019-03-02T21:12:14.296Z,11.29
2019-03-02T21:14:47.720Z,11.34
2019-03-02T21:17:21.190Z,11.38
2019-03-02T21:19:55.024Z,11.35
2019-03-02T21:22:28.554Z,11.43
2019-03-02T21:25:01.948Z,11.43
2019-03-02T21:27:35.418Z,11.41
2019-03-02T21:30:11.903Z,11.29
2019-03-02T21:32:46.128Z,11.42
2019-03-02T21:35:19.762Z,11.36
2019-03-02T21:37:53.296Z,11.42
2019-03-02T21:40:29.232Z,11.45
2019-03-02T21:43:02.616Z,11.51
2019-03-02T21:45:36.489Z,11.37
2019-03-02T21:48:09.917Z,11.38
2019-03-02T21:50:46.502Z,11.43
2019-03-02T21:53:19.890Z,11.46
2019-03-02T21:55:53.357Z,11.50
2019-03-02T21:58:26.789Z,11.56
2019-03-02T22:01:00.183Z,11.55
2019-03-02T22:03:33.618Z,11.52
2019-03-02T22:06:07.040Z,11.59
2019-03-02T22:08:40.800Z,11.60
2019-03-02T22:11:15.782Z,11.57
2019-03-02T22:13:49.240Z,11.68
2019-03-02T22:16:22.776Z,11.66
2019-03-02T22:18:56.230Z,11.66
2019-03-02T22:21:29.671Z,11.70
2019-03-02T22:24:03.067Z,11.74
2019-03-02T22:26:36.538Z,11.69
2019-03-02T22:29:09.971Z,11.69
2019-03-02T22:31:43.401Z,11.78
2019-03-02T22:34:16.798Z,11.80
2019-03-02T22:36:50.357Z,11.81
2019-03-02T22:39:23.778Z,11.82
2019-03-02T22:41:57.144Z,11.67
2019-03-02T22:44:30.478Z,11.76
2019-03-02T22:47:04.019Z,11.80
2019-03-02T22:49:37.377Z,11.80
2019-03-02T22:52:10.797Z,11.90
2019-03-02T22:54:44.334Z,11.96
2019-03-02T22:57:17.870Z,11.93
2019-03-02T22:59:59.934Z,11.94
2019-03-02T23:02:32.255Z,11.93
2019-03-02T23:05:05.699Z,11.96
2019-03-02T23:07:39.279Z,11.89
2019-03-02T23:10:12.742Z,11.92
2019-03-02T23:12:46.227Z,11.71
2019-03-02T23:15:21.776Z,11.76
2019-03-02T23:17:55.206Z,11.72
2019-03-02T23:20:28.680Z,11.76
2019-03-02T23:23:02.269Z,11.72
2019-03-02T23:25:35.614Z,11.71
2019-03-02T23:28:09.028Z,11.78
2019-03-02T23:30:42.509Z,11.63
2019-03-02T23:33:16.299Z,11.52
2019-03-02T23:35:49.689Z,11.56
2019-03-02T23:38:23.192Z,11.60
2019-03-02T23:40:57.384Z,11.66
2019-03-02T23:43:30.823Z,11.50
2019-03-02T23:46:04.237Z,11.62
2019-03-02T23:48:37.660Z,11.57
2019-03-02T23:51:11.066Z,11.51
2019-03-02T23:53:44.516Z,11.49
2019-03-02T23:56:18.142Z,11.67
2019-03-02T23:58:51.650Z,11.60
